sensor_id;sensor_type;location;lat;lon;timestamp;temperature;humidity
35027;DHT22;60696;51.426;6.934;2023-09-19T04:01:33;13.80;99.90
35027;DHT22;60696;51.426;6.934;2023-09-19T04:03:59;13.80;99.90
35027;DHT22;60696;51.426;6.934;2023-09-19T04:06:33;13.80;99.90
35027;DHT22;60696;51.426;6.934;2023-09-19T04:09:00;13.70;99.90
35027;DHT22;60696;51.426;6.934;2023-09-19T04:11:26;13.70;99.90
35027;DHT22;60696;51.426;6.934;2023-09-19T04:13:51;13.70;99.90
35027;DHT22;60696;51.426;6.934;2023-09-19T04:16:17;13.70;99.90
35027;DHT22;60696;51.426;6.934;2023-09-19T04:18:43;13.70;99.90
35027;DHT22;60696;51.426;6.934;2023-09-19T04:21:08;13.70;99.90
35027;DHT22;60696;51.426;6.934;2023-09-19T04:23:34;13.70;99.90
35027;DHT22;60696;51.426;6.934;2023-09-19T04:26:00;13.70;99.90
35027;DHT22;60696;51.426;6.934;2023-09-19T04:28:26;13.80;99.90
35027;DHT22;60696;51.426;6.934;2023-09-19T04:30:53;13.80;99.90
35027;DHT22;60696;51.426;6.934;2023-09-19T04:33:18;13.80;99.90
35027;DHT22;60696;51.426;6.934;2023-09-19T04:35:44;13.80;99.90
35027;DHT22;60696;51.426;6.934;2023-09-19T04:38:10;13.80;99.90
35027;DHT22;60696;51.426;6.934;2023-09-19T04:40:36;13.80;99.90
35027;DHT22;60696;51.426;6.934;2023-09-19T04:43:03;13.80;99.90
35027;DHT22;60696;51.426;6.934;2023-09-19T04:45:29;13.80;99.90
35027;DHT22;60696;51.426;6.934;2023-09-19T04:47:55;13.80;99.90
35027;DHT22;60696;51.426;6.934;2023-09-19T04:50:24;13.70;99.90
35027;DHT22;60696;51.426;6.934;2023-09-19T04:52:53;13.70;99.90
35027;DHT22;60696;51.426;6.934;2023-09-19T04:55:19;13.80;99.90
35027;DHT22;60696;51.426;6.934;2023-09-19T04:57:46;13.70;99.90
35027;DHT22;60696;51.426;6.934;2023-09-19T05:00:21;13.70;99.90
35027;DHT22;60696;51.426;6.934;2023-09-19T05:02:51;13.70;99.90
35027;DHT22;60696;51.426;6.934;2023-09-19T05:05:17;13.70;99.90
35027;DHT22;60696;51.426;6.934;2023-09-19T05:07:44;13.70;99.90
35027;DHT22;60696;51.426;6.934;2023-09-19T05:10:10;13.70;99.90
35027;DHT22;60696;51.426;6.934;2023-09-19T05:12:37;13.70;99.90
35027;DHT22;60696;51.426;6.934;2023-09-19T05:15:03;13.70;99.90
35027;DHT22;60696;51.426;6.934;2023-09-19T05:17:30;13.70;99.90
35027;DHT22;60696;51.426;6.934;2023-09-19T05:19:57;13.80;99.90
35027;DHT22;60696;51.426;6.934;2023-09-19T05:22:23;13.80;99.90
35027;DHT22;60696;51.426;6.934;2023-09-19T05:24:50;13.70;99.90
35027;DHT22;60696;51.426;6.934;2023-09-19T05:27:16;13.80;99.90
35027;DHT22;60696;51.426;6.934;2023-09-19T05:29:45;13.80;99.90
35027;DHT22;60696;51.426;6.934;2023-09-19T05:32:11;13.90;99.90
35027;DHT22;60696;51.426;6.934;2023-09-19T05:34:37;13.90;99.90
35027;DHT22;60696;51.426;6.934;2023-09-19T05:37:04;14.20;99.90
35027;DHT22;60696;51.426;6.934;2023-09-19T05:39:30;14.30;99.90
35027;DHT22;60696;51.426;6.934;2023-09-19T05:41:56;14.30;99.90
35027;DHT22;60696;51.426;6.934;2023-09-19T05:44:22;14.30;99.90
35027;DHT22;60696;51.426;6.934;2023-09-19T05:46:48;14.70;99.90
35027;DHT22;60696;51.426;6.934;2023-09-19T05:49:15;15.10;99.90
35027;DHT22;60696;51.426;6.934;2023-09-19T05:51:41;15.00;99.90
35027;DHT22;60696;51.426;6.934;2023-09-19T05:54:06;14.80;99.90
35027;DHT22;60696;51.426;6.934;2023-09-19T05:56:32;14.60;99.90
35027;DHT22;60696;51.426;6.934;2023-09-19T05:58:57;14.60;99.90
35027;DHT22;60696;51.426;6.934;2023-09-19T06:01:23;14.50;99.90
35027;DHT22;60696;51.426;6.934;2023-09-19T06:03:48;14.50;99.90
35027;DHT22;60696;51.426;6.934;2023-09-19T06:06:14;14.60;99.90
35027;DHT22;60696;51.426;6.934;2023-09-19T06:08:40;14.60;99.90
35027;DHT22;60696;51.426;6.934;2023-09-19T06:11:05;14.50;99.90
35027;DHT22;60696;51.426;6.934;2023-09-19T06:13:34;14.50;99.90
35027;DHT22;60696;51.426;6.934;2023-09-19T06:16:01;14.60;99.90
35027;DHT22;60696;51.426;6.934;2023-09-19T06:18:31;14.60;99.90
35027;DHT22;60696;51.426;6.934;2023-09-19T06:20:59;14.60;99.90
35027;DHT22;60696;51.426;6.934;2023-09-19T06:23:36;14.60;99.90
35027;DHT22;60696;51.426;6.934;2023-09-19T06:26:01;14.70;99.90
35027;DHT22;60696;51.426;6.934;2023-09-19T06:28:27;14.80;99.90
35027;DHT22;60696;51.426;6.934;2023-09-19T06:30:54;14.80;99.90
35027;DHT22;60696;51.426;6.934;2023-09-19T06:33:20;14.80;99.90
35027;DHT22;60696;51.426;6.934;2023-09-19T06:35:47;14.80;99.90
35027;DHT22;60696;51.426;6.934;2023-09-19T06:38:13;14.80;99.90
35027;DHT22;60696;51.426;6.934;2023-09-19T06:40:41;14.90;99.90
35027;DHT22;60696;51.426;6.934;2023-09-19T06:43:10;14.90;99.90
35027;DHT22;60696;51.426;6.934;2023-09-19T06:45:36;14.90;99.90
35027;DHT22;60696;51.426;6.934;2023-09-19T06:48:01;15.00;99.90
35027;DHT22;60696;51.426;6.934;2023-09-19T06:50:28;15.10;99.90
35027;DHT22;60696;51.426;6.934;2023-09-19T06:52:58;15.20;99.90
35027;DHT22;60696;51.426;6.934;2023-09-19T06:55:25;15.20;99.90
35027;DHT22;60696;51.426;6.934;2023-09-19T06:57:53;15.30;99.90
35027;DHT22;60696;51.426;6.934;2023-09-19T07:00:19;15.20;99.90
35027;DHT22;60696;51.426;6.934;2023-09-19T07:02:57;15.30;99.90
35027;DHT22;60696;51.426;6.934;2023-09-19T07:05:26;15.40;99.90
35027;DHT22;60696;51.426;6.934;2023-09-19T07:07:53;15.40;99.90
35027;DHT22;60696;51.426;6.934;2023-09-19T07:10:22;15.50;99.90
35027;DHT22;60696;51.426;6.934;2023-09-19T07:12:55;15.60;99.90
35027;DHT22;60696;51.426;6.934;2023-09-19T07:15:21;15.60;99.90
35027;DHT22;60696;51.426;6.934;2023-09-19T07:17:48;15.80;99.90
35027;DHT22;60696;51.426;6.934;2023-09-19T07:20:14;15.80;99.90
35027;DHT22;60696;51.426;6.934;2023-09-19T07:22:41;15.90;99.90
35027;DHT22;60696;51.426;6.934;2023-09-19T07:25:07;15.90;99.90
35027;DHT22;60696;51.426;6.934;2023-09-19T07:27:33;16.00;99.90
35027;DHT22;60696;51.426;6.934;2023-09-19T07:29:59;16.10;99.90
35027;DHT22;60696;51.426;6.934;2023-09-19T07:32:24;16.10;99.90
35027;DHT22;60696;51.426;6.934;2023-09-19T07:34:50;16.10;99.90
35027;DHT22;60696;51.426;6.934;2023-09-19T07:37:16;16.20;99.90
35027;DHT22;60696;51.426;6.934;2023-09-19T07:39:42;16.30;99.90
35027;DHT22;60696;51.426;6.934;2023-09-19T07:42:09;16.40;99.90
35027;DHT22;60696;51.426;6.934;2023-09-19T07:44:36;16.60;99.90
35027;DHT22;60696;51.426;6.934;2023-09-19T07:47:02;16.70;99.90
35027;DHT22;60696;51.426;6.934;2023-09-19T07:49:28;16.90;99.90
35027;DHT22;60696;51.426;6.934;2023-09-19T07:51:54;17.00;99.90
35027;DHT22;60696;51.426;6.934;2023-09-19T07:54:20;17.00;99.90
35027;DHT22;60696;51.426;6.934;2023-09-19T07:56:46;16.90;99.90
35027;DHT22;60696;51.426;6.934;2023-09-19T07:59:12;16.90;99.90
35027;DHT22;60696;51.426;6.934;2023-09-19T08:01:39;16.80;99.90
35027;DHT22;60696;51.426;6.934;2023-09-19T08:04:07;17.00;99.90
35027;DHT22;60696;51.426;6.934;2023-09-19T08:06:32;17.10;99.90
35027;DHT22;60696;51.426;6.934;2023-09-19T08:12:34;17.40;99.90
35027;DHT22;60696;51.426;6.934;2023-09-19T08:15:04;17.70;99.90
35027;DHT22;60696;51.426;6.934;2023-09-19T08:17:34;17.80;99.90
35027;DHT22;60696;51.426;6.934;2023-09-19T08:20:00;18.00;99.90
35027;DHT22;60696;51.426;6.934;2023-09-19T08:22:26;18.20;99.90
35027;DHT22;60696;51.426;6.934;2023-09-19T08:24:52;18.10;99.90
35027;DHT22;60696;51.426;6.934;2023-09-19T08:27:20;18.20;99.90
35027;DHT22;60696;51.426;6.934;2023-09-19T08:29:46;18.50;99.90
35027;DHT22;60696;51.426;6.934;2023-09-19T08:32:12;18.70;99.90
35027;DHT22;60696;51.426;6.934;2023-09-19T08:34:38;18.80;99.90
35027;DHT22;60696;51.426;6.934;2023-09-19T08:37:03;19.10;99.90
35027;DHT22;60696;51.426;6.934;2023-09-19T08:39:30;19.40;99.90
35027;DHT22;60696;51.426;6.934;2023-09-19T08:42:01;19.80;99.90
35027;DHT22;60696;51.426;6.934;2023-09-19T08:44:27;20.70;99.70
35027;DHT22;60696;51.426;6.934;2023-09-19T08:47:08;21.00;97.00
35027;DHT22;60696;51.426;6.934;2023-09-19T08:52:43;22.00;94.00
35027;DHT22;60696;51.426;6.934;2023-09-19T08:55:12;22.10;91.40
35027;DHT22;60696;51.426;6.934;2023-09-19T08:57:38;21.90;91.00
35027;DHT22;60696;51.426;6.934;2023-09-19T09:00:08;21.90;91.60
35027;DHT22;60696;51.426;6.934;2023-09-19T09:02:41;22.10;90.20
35027;DHT22;60696;51.426;6.934;2023-09-19T09:05:09;21.80;91.50
35027;DHT22;60696;51.426;6.934;2023-09-19T09:07:37;21.70;90.00
35027;DHT22;60696;51.426;6.934;2023-09-19T09:10:03;21.20;90.30
35027;DHT22;60696;51.426;6.934;2023-09-19T09:12:30;20.90;93.00
35027;DHT22;60696;51.426;6.934;2023-09-19T09:14:56;21.00;90.80
35027;DHT22;60696;51.426;6.934;2023-09-19T09:17:23;21.50;90.70
35027;DHT22;60696;51.426;6.934;2023-09-19T09:19:53;22.20;90.50
35027;DHT22;60696;51.426;6.934;2023-09-19T09:22:19;22.80;85.50
35027;DHT22;60696;51.426;6.934;2023-09-19T09:24:56;22.60;84.00
35027;DHT22;60696;51.426;6.934;2023-09-19T09:27:30;22.30;80.80
35027;DHT22;60696;51.426;6.934;2023-09-19T09:29:58;22.90;78.80
35027;DHT22;60696;51.426;6.934;2023-09-19T09:32:25;21.90;79.50
35027;DHT22;60696;51.426;6.934;2023-09-19T09:34:55;21.40;83.40
35027;DHT22;60696;51.426;6.934;2023-09-19T09:37:22;21.30;84.00
35027;DHT22;60696;51.426;6.934;2023-09-19T09:42:36;21.50;84.10
35027;DHT22;60696;51.426;6.934;2023-09-19T09:45:23;21.10;83.40
35027;DHT22;60696;51.426;6.934;2023-09-19T09:47:58;21.10;86.50
35027;DHT22;60696;51.426;6.934;2023-09-19T09:50:33;21.20;86.10
35027;DHT22;60696;51.426;6.934;2023-09-19T09:53:21;21.50;84.00
35027;DHT22;60696;51.426;6.934;2023-09-19T09:56:06;21.80;81.00
35027;DHT22;60696;51.426;6.934;2023-09-19T09:58:36;21.90;82.60
35027;DHT22;60696;51.426;6.934;2023-09-19T10:01:03;22.10;83.00
35027;DHT22;60696;51.426;6.934;2023-09-19T10:03:38;21.80;80.20
35027;DHT22;60696;51.426;6.934;2023-09-19T10:06:15;21.40;81.50
35027;DHT22;60696;51.426;6.934;2023-09-19T10:09:09;20.90;81.70
35027;DHT22;60696;51.426;6.934;2023-09-19T10:12:03;20.30;85.60
35027;DHT22;60696;51.426;6.934;2023-09-19T10:14:31;20.20;91.20
35027;DHT22;60696;51.426;6.934;2023-09-19T10:17:02;21.60;90.40
35027;DHT22;60696;51.426;6.934;2023-09-19T10:19:36;23.40;76.60
35027;DHT22;60696;51.426;6.934;2023-09-19T10:22:02;25.40;69.90
35027;DHT22;60696;51.426;6.934;2023-09-19T10:24:30;25.70;58.50
35027;DHT22;60696;51.426;6.934;2023-09-19T10:26:57;26.70;60.90
35027;DHT22;60696;51.426;6.934;2023-09-19T10:29:25;27.00;51.30
35027;DHT22;60696;51.426;6.934;2023-09-19T10:31:54;26.20;54.50
35027;DHT22;60696;51.426;6.934;2023-09-19T10:34:26;26.90;55.20
35027;DHT22;60696;51.426;6.934;2023-09-19T10:36:53;27.00;52.20
35027;DHT22;60696;51.426;6.934;2023-09-19T10:39:19;25.70;52.70
35027;DHT22;60696;51.426;6.934;2023-09-19T10:41:53;23.90;55.80
35027;DHT22;60696;51.426;6.934;2023-09-19T10:44:25;22.80;59.90
35027;DHT22;60696;51.426;6.934;2023-09-19T10:46:52;21.90;63.10
35027;DHT22;60696;51.426;6.934;2023-09-19T10:49:20;22.30;66.70
35027;DHT22;60696;51.426;6.934;2023-09-19T10:51:47;22.80;62.90
35027;DHT22;60696;51.426;6.934;2023-09-19T10:54:17;22.30;62.80
35027;DHT22;60696;51.426;6.934;2023-09-19T10:56:48;22.60;66.10
35027;DHT22;60696;51.426;6.934;2023-09-19T10:59:17;23.60;63.50
35027;DHT22;60696;51.426;6.934;2023-09-19T11:01:50;23.80;60.50
35027;DHT22;60696;51.426;6.934;2023-09-19T11:04:32;23.40;61.70
35027;DHT22;60696;51.426;6.934;2023-09-19T11:07:04;23.10;62.20
35027;DHT22;60696;51.426;6.934;2023-09-19T11:09:55;22.60;64.50
35027;DHT22;60696;51.426;6.934;2023-09-19T11:16:04;21.10;69.10
35027;DHT22;60696;51.426;6.934;2023-09-19T11:26:49;21.30;72.80
35027;DHT22;60696;51.426;6.934;2023-09-19T11:31:50;20.70;75.30
35027;DHT22;60696;51.426;6.934;2023-09-19T11:37:01;21.00;79.40
35027;DHT22;60696;51.426;6.934;2023-09-19T11:39:30;20.60;77.50
35027;DHT22;60696;51.426;6.934;2023-09-19T11:41:56;20.90;81.30
35027;DHT22;60696;51.426;6.934;2023-09-19T11:44:33;21.20;76.90
35027;DHT22;60696;51.426;6.934;2023-09-19T11:47:00;20.70;72.60
35027;DHT22;60696;51.426;6.934;2023-09-19T11:49:30;20.40;77.30
35027;DHT22;60696;51.426;6.934;2023-09-19T11:51:58;20.80;79.80
35027;DHT22;60696;51.426;6.934;2023-09-19T11:54:27;20.90;75.90
35027;DHT22;60696;51.426;6.934;2023-09-19T11:56:58;20.80;79.90
35027;DHT22;60696;51.426;6.934;2023-09-19T11:59:26;20.90;77.60
35027;DHT22;60696;51.426;6.934;2023-09-19T12:02:06;21.10;80.30
35027;DHT22;60696;51.426;6.934;2023-09-19T12:04:44;20.50;72.90
35027;DHT22;60696;51.426;6.934;2023-09-19T12:07:12;20.00;76.50
35027;DHT22;60696;51.426;6.934;2023-09-19T12:10:04;20.00;80.80
35027;DHT22;60696;51.426;6.934;2023-09-19T12:12:31;20.40;79.50
35027;DHT22;60696;51.426;6.934;2023-09-19T12:14:58;20.70;76.40
35027;DHT22;60696;51.426;6.934;2023-09-19T12:17:37;20.50;76.70
35027;DHT22;60696;51.426;6.934;2023-09-19T12:20:05;20.50;78.30
35027;DHT22;60696;51.426;6.934;2023-09-19T12:22:44;20.60;74.00
35027;DHT22;60696;51.426;6.934;2023-09-19T12:25:12;20.80;77.50
35027;DHT22;60696;51.426;6.934;2023-09-19T12:27:48;20.80;75.10
35027;DHT22;60696;51.426;6.934;2023-09-19T12:30:18;20.60;71.80
35027;DHT22;60696;51.426;6.934;2023-09-19T12:32:46;20.40;73.70
35027;DHT22;60696;51.426;6.934;2023-09-19T12:35:30;20.40;74.40
35027;DHT22;60696;51.426;6.934;2023-09-19T12:38:00;20.60;74.80
35027;DHT22;60696;51.426;6.934;2023-09-19T12:40:29;20.70;75.00
35027;DHT22;60696;51.426;6.934;2023-09-19T12:42:59;20.60;71.20
35027;DHT22;60696;51.426;6.934;2023-09-19T12:45:25;20.40;72.90
35027;DHT22;60696;51.426;6.934;2023-09-19T12:48:23;20.20;70.20
35027;DHT22;60696;51.426;6.934;2023-09-19T12:51:10;20.20;74.90
35027;DHT22;60696;51.426;6.934;2023-09-19T12:53:45;20.20;72.10
35027;DHT22;60696;51.426;6.934;2023-09-19T12:56:17;20.30;74.10
35027;DHT22;60696;51.426;6.934;2023-09-19T13:01:15;20.40;74.30
35027;DHT22;60696;51.426;6.934;2023-09-19T13:03:41;20.50;74.40
35027;DHT22;60696;51.426;6.934;2023-09-19T13:06:07;20.70;77.30
35027;DHT22;60696;51.426;6.934;2023-09-19T13:08:36;20.50;72.30
35027;DHT22;60696;51.426;6.934;2023-09-19T13:16:06;20.10;72.20
35027;DHT22;60696;51.426;6.934;2023-09-19T13:18:53;20.10;70.00
35027;DHT22;60696;51.426;6.934;2023-09-19T13:21:35;20.10;74.20
35027;DHT22;60696;51.426;6.934;2023-09-19T13:24:22;19.90;73.00
35027;DHT22;60696;51.426;6.934;2023-09-19T13:26:51;19.90;72.50
35027;DHT22;60696;51.426;6.934;2023-09-19T13:29:17;20.00;75.60
35027;DHT22;60696;51.426;6.934;2023-09-19T13:31:51;20.00;73.90
35027;DHT22;60696;51.426;6.934;2023-09-19T13:34:19;20.10;72.00
35027;DHT22;60696;51.426;6.934;2023-09-19T13:36:45;20.00;71.70
35027;DHT22;60696;51.426;6.934;2023-09-19T13:39:16;19.90;71.60
35027;DHT22;60696;51.426;6.934;2023-09-19T13:41:47;19.80;74.10
35027;DHT22;60696;51.426;6.934;2023-09-19T13:44:13;19.70;72.50
35027;DHT22;60696;51.426;6.934;2023-09-19T13:46:42;19.60;73.70
35027;DHT22;60696;51.426;6.934;2023-09-19T13:49:11;19.70;77.50
35027;DHT22;60696;51.426;6.934;2023-09-19T13:51:37;19.80;76.60
35027;DHT22;60696;51.426;6.934;2023-09-19T13:54:02;19.70;77.20
35027;DHT22;60696;51.426;6.934;2023-09-19T13:56:28;19.60;78.30
35027;DHT22;60696;51.426;6.934;2023-09-19T13:58:54;19.60;79.10
35027;DHT22;60696;51.426;6.934;2023-09-19T14:01:20;19.50;76.00
35027;DHT22;60696;51.426;6.934;2023-09-19T14:03:45;19.40;76.80
35027;DHT22;60696;51.426;6.934;2023-09-19T14:06:17;19.50;76.70
35027;DHT22;60696;51.426;6.934;2023-09-19T14:08:44;19.30;78.00
35027;DHT22;60696;51.426;6.934;2023-09-19T14:11:13;19.20;79.40
35027;DHT22;60696;51.426;6.934;2023-09-19T14:13:39;19.20;81.90
35027;DHT22;60696;51.426;6.934;2023-09-19T14:16:06;19.20;79.60
35027;DHT22;60696;51.426;6.934;2023-09-19T14:18:34;19.30;81.20
35027;DHT22;60696;51.426;6.934;2023-09-19T14:21:03;19.30;81.40
35027;DHT22;60696;51.426;6.934;2023-09-19T14:23:33;19.20;80.60
35027;DHT22;60696;51.426;6.934;2023-09-19T14:26:01;19.20;82.70
35027;DHT22;60696;51.426;6.934;2023-09-19T14:28:26;19.20;81.60
35027;DHT22;60696;51.426;6.934;2023-09-19T14:30:52;19.20;85.20
35027;DHT22;60696;51.426;6.934;2023-09-19T14:33:18;19.20;83.30
35027;DHT22;60696;51.426;6.934;2023-09-19T14:35:49;19.10;83.50
35027;DHT22;60696;51.426;6.934;2023-09-19T14:38:17;19.00;83.70
35027;DHT22;60696;51.426;6.934;2023-09-19T14:40:43;19.10;88.50
35027;DHT22;60696;51.426;6.934;2023-09-19T14:43:11;19.10;87.00
35027;DHT22;60696;51.426;6.934;2023-09-19T14:45:37;19.10;86.50
35027;DHT22;60696;51.426;6.934;2023-09-19T14:48:03;19.10;86.80
35027;DHT22;60696;51.426;6.934;2023-09-19T14:50:30;19.20;88.30
35027;DHT22;60696;51.426;6.934;2023-09-19T14:52:56;19.10;86.70
35027;DHT22;60696;51.426;6.934;2023-09-19T14:55:22;19.00;87.50
35027;DHT22;60696;51.426;6.934;2023-09-19T14:57:51;19.00;87.20
35027;DHT22;60696;51.426;6.934;2023-09-19T15:00:18;19.00;88.60
35027;DHT22;60696;51.426;6.934;2023-09-19T15:02:46;18.90;89.90
35027;DHT22;60696;51.426;6.934;2023-09-19T15:05:13;18.90;90.20
35027;DHT22;60696;51.426;6.934;2023-09-19T15:07:41;18.90;90.30
35027;DHT22;60696;51.426;6.934;2023-09-19T15:10:06;18.90;90.60
35027;DHT22;60696;51.426;6.934;2023-09-19T15:12:37;18.80;90.80
35027;DHT22;60696;51.426;6.934;2023-09-19T15:15:04;18.70;90.80
35027;DHT22;60696;51.426;6.934;2023-09-19T15:17:32;18.70;91.00
35027;DHT22;60696;51.426;6.934;2023-09-19T15:19:58;18.70;91.60
35027;DHT22;60696;51.426;6.934;2023-09-19T15:22:23;18.80;92.10
35027;DHT22;60696;51.426;6.934;2023-09-19T15:24:50;18.80;91.90
35027;DHT22;60696;51.426;6.934;2023-09-19T15:27:16;18.70;92.20
35027;DHT22;60696;51.426;6.934;2023-09-19T15:29:45;18.70;92.00
35027;DHT22;60696;51.426;6.934;2023-09-19T15:32:11;18.70;91.60
35027;DHT22;60696;51.426;6.934;2023-09-19T15:34:37;18.70;92.10
35027;DHT22;60696;51.426;6.934;2023-09-19T15:37:03;18.80;92.00
35027;DHT22;60696;51.426;6.934;2023-09-19T15:39:31;18.80;91.40
35027;DHT22;60696;51.426;6.934;2023-09-19T15:42:00;18.90;91.70
35027;DHT22;60696;51.426;6.934;2023-09-19T15:44:25;19.00;90.80
35027;DHT22;60696;51.426;6.934;2023-09-19T15:46:53;19.10;90.90
35027;DHT22;60696;51.426;6.934;2023-09-19T15:49:19;19.00;89.90
35027;DHT22;60696;51.426;6.934;2023-09-19T15:51:46;19.10;90.80
35027;DHT22;60696;51.426;6.934;2023-09-19T15:54:13;19.10;90.60
35027;DHT22;60696;51.426;6.934;2023-09-19T15:56:42;19.10;91.70
35027;DHT22;60696;51.426;6.934;2023-09-19T15:59:09;19.00;90.60
35027;DHT22;60696;51.426;6.934;2023-09-19T16:01:44;19.00;90.60
35027;DHT22;60696;51.426;6.934;2023-09-19T16:04:10;18.90;90.60
35027;DHT22;60696;51.426;6.934;2023-09-19T16:06:38;18.80;91.40
35027;DHT22;60696;51.426;6.934;2023-09-19T16:09:04;18.60;91.80
35027;DHT22;60696;51.426;6.934;2023-09-19T16:11:34;18.60;92.30
35027;DHT22;60696;51.426;6.934;2023-09-19T16:14:01;18.50;92.30
35027;DHT22;60696;51.426;6.934;2023-09-19T16:16:28;18.40;93.10
35027;DHT22;60696;51.426;6.934;2023-09-19T16:18:58;18.40;92.80
35027;DHT22;60696;51.426;6.934;2023-09-19T16:21:27;18.30;92.60
35027;DHT22;60696;51.426;6.934;2023-09-19T16:23:53;18.30;92.70
35027;DHT22;60696;51.426;6.934;2023-09-19T16:26:20;18.40;92.70
35027;DHT22;60696;51.426;6.934;2023-09-19T16:28:47;18.40;93.10
35027;DHT22;60696;51.426;6.934;2023-09-19T16:31:13;18.40;94.40
35027;DHT22;60696;51.426;6.934;2023-09-19T16:33:40;18.40;94.40
35027;DHT22;60696;51.426;6.934;2023-09-19T16:36:10;18.40;93.90
35027;DHT22;60696;51.426;6.934;2023-09-19T16:38:37;18.40;93.50
35027;DHT22;60696;51.426;6.934;2023-09-19T16:41:03;18.40;93.90
35027;DHT22;60696;51.426;6.934;2023-09-19T16:43:30;18.40;94.10
35027;DHT22;60696;51.426;6.934;2023-09-19T16:45:58;18.40;93.70
35027;DHT22;60696;51.426;6.934;2023-09-19T16:48:25;18.40;93.90
35027;DHT22;60696;51.426;6.934;2023-09-19T16:50:52;18.40;94.00
35027;DHT22;60696;51.426;6.934;2023-09-19T16:53:19;18.40;93.60
35027;DHT22;60696;51.426;6.934;2023-09-19T16:55:45;18.40;94.00
35027;DHT22;60696;51.426;6.934;2023-09-19T16:58:12;18.40;94.10
35027;DHT22;60696;51.426;6.934;2023-09-19T17:00:38;18.40;94.20
35027;DHT22;60696;51.426;6.934;2023-09-19T17:03:04;18.40;94.30
35027;DHT22;60696;51.426;6.934;2023-09-19T17:05:31;18.40;94.40
35027;DHT22;60696;51.426;6.934;2023-09-19T17:07:56;18.40;94.50
35027;DHT22;60696;51.426;6.934;2023-09-19T17:10:32;18.30;94.90
35027;DHT22;60696;51.426;6.934;2023-09-19T17:12:59;18.30;94.60
35027;DHT22;60696;51.426;6.934;2023-09-19T17:15:25;18.20;94.20
35027;DHT22;60696;51.426;6.934;2023-09-19T17:17:52;18.20;94.30
35027;DHT22;60696;51.426;6.934;2023-09-19T17:20:18;18.20;95.30
35027;DHT22;60696;51.426;6.934;2023-09-19T17:22:44;18.20;94.90
35027;DHT22;60696;51.426;6.934;2023-09-19T17:25:10;18.20;95.00
35027;DHT22;60696;51.426;6.934;2023-09-19T17:27:40;18.20;94.60
35027;DHT22;60696;51.426;6.934;2023-09-19T17:30:10;18.20;94.60
35027;DHT22;60696;51.426;6.934;2023-09-19T17:32:45;18.20;94.00
35027;DHT22;60696;51.426;6.934;2023-09-19T17:35:12;18.20;94.10
35027;DHT22;60696;51.426;6.934;2023-09-19T17:37:38;18.20;94.50
35027;DHT22;60696;51.426;6.934;2023-09-19T17:40:07;18.20;95.20
35027;DHT22;60696;51.426;6.934;2023-09-19T17:42:39;18.20;95.30
35027;DHT22;60696;51.426;6.934;2023-09-19T17:45:08;18.20;94.70
35027;DHT22;60696;51.426;6.934;2023-09-19T17:47:35;18.20;95.40
35027;DHT22;60696;51.426;6.934;2023-09-19T17:50:05;18.20;94.50
35027;DHT22;60696;51.426;6.934;2023-09-19T17:52:30;18.20;94.90
35027;DHT22;60696;51.426;6.934;2023-09-19T17:54:57;18.20;94.70
35027;DHT22;60696;51.426;6.934;2023-09-19T17:57:24;18.10;94.90
35027;DHT22;60696;51.426;6.934;2023-09-19T17:59:51;18.20;95.10
35027;DHT22;60696;51.426;6.934;2023-09-19T18:02:16;18.10;95.10
35027;DHT22;60696;51.426;6.934;2023-09-19T18:04:43;18.10;94.70
35027;DHT22;60696;51.426;6.934;2023-09-19T18:07:09;18.10;95.00
35027;DHT22;60696;51.426;6.934;2023-09-19T18:09:34;18.10;95.40
35027;DHT22;60696;51.426;6.934;2023-09-19T18:12:02;18.10;95.40
35027;DHT22;60696;51.426;6.934;2023-09-19T18:14:30;18.10;95.10
35027;DHT22;60696;51.426;6.934;2023-09-19T18:16:57;18.10;95.20
35027;DHT22;60696;51.426;6.934;2023-09-19T18:19:23;18.10;95.40
35027;DHT22;60696;51.426;6.934;2023-09-19T18:21:49;18.10;95.40
35027;DHT22;60696;51.426;6.934;2023-09-19T18:24:16;18.10;94.90
35027;DHT22;60696;51.426;6.934;2023-09-19T18:26:42;18.10;94.90
35027;DHT22;60696;51.426;6.934;2023-09-19T18:29:08;18.10;94.60
35027;DHT22;60696;51.426;6.934;2023-09-19T18:31:36;18.10;95.60
35027;DHT22;60696;51.426;6.934;2023-09-19T18:34:03;18.00;95.80
35027;DHT22;60696;51.426;6.934;2023-09-19T18:36:29;18.00;95.60
35027;DHT22;60696;51.426;6.934;2023-09-19T18:38:55;18.00;95.50
35027;DHT22;60696;51.426;6.934;2023-09-19T18:41:22;18.00;95.60
35027;DHT22;60696;51.426;6.934;2023-09-19T18:43:48;18.00;95.40
35027;DHT22;60696;51.426;6.934;2023-09-19T18:46:16;18.00;96.30
35027;DHT22;60696;51.426;6.934;2023-09-19T18:48:45;18.00;95.10
35027;DHT22;60696;51.426;6.934;2023-09-19T18:51:12;18.00;96.00
35027;DHT22;60696;51.426;6.934;2023-09-19T18:53:39;18.00;95.50
35027;DHT22;60696;51.426;6.934;2023-09-19T18:56:09;18.00;95.70
35027;DHT22;60696;51.426;6.934;2023-09-19T18:58:49;18.00;95.40
35027;DHT22;60696;51.426;6.934;2023-09-19T19:01:15;18.00;95.20
35027;DHT22;60696;51.426;6.934;2023-09-19T19:03:41;18.00;95.70
35027;DHT22;60696;51.426;6.934;2023-09-19T19:06:09;18.00;96.10
35027;DHT22;60696;51.426;6.934;2023-09-19T19:08:37;18.00;95.40
35027;DHT22;60696;51.426;6.934;2023-09-19T19:11:07;17.90;95.20
35027;DHT22;60696;51.426;6.934;2023-09-19T19:13:33;18.00;95.40
35027;DHT22;60696;51.426;6.934;2023-09-19T19:15:59;17.90;95.90
35027;DHT22;60696;51.426;6.934;2023-09-19T19:18:27;17.90;96.10
35027;DHT22;60696;51.426;6.934;2023-09-19T19:20:59;17.90;95.50
35027;DHT22;60696;51.426;6.934;2023-09-19T19:23:25;17.90;95.80
35027;DHT22;60696;51.426;6.934;2023-09-19T19:25:51;17.90;96.20
35027;DHT22;60696;51.426;6.934;2023-09-19T19:28:19;17.90;96.00
35027;DHT22;60696;51.426;6.934;2023-09-19T19:30:45;17.90;96.00
35027;DHT22;60696;51.426;6.934;2023-09-19T19:33:12;17.80;96.10
35027;DHT22;60696;51.426;6.934;2023-09-19T19:35:38;17.80;97.00
35027;DHT22;60696;51.426;6.934;2023-09-19T19:38:07;17.80;96.50
35027;DHT22;60696;51.426;6.934;2023-09-19T19:40:32;17.80;97.00
35027;DHT22;60696;51.426;6.934;2023-09-19T19:42:58;17.80;97.10
35027;DHT22;60696;51.426;6.934;2023-09-19T19:45:24;17.80;97.50
35027;DHT22;60696;51.426;6.934;2023-09-19T19:47:52;17.80;96.50
35027;DHT22;60696;51.426;6.934;2023-09-19T19:50:18;17.80;96.40
35027;DHT22;60696;51.426;6.934;2023-09-19T19:52:44;17.80;96.90
35027;DHT22;60696;51.426;6.934;2023-09-19T19:55:09;17.80;97.70
35027;DHT22;60696;51.426;6.934;2023-09-19T19:57:36;17.80;97.40
35027;DHT22;60696;51.426;6.934;2023-09-19T20:00:02;17.80;97.50
35027;DHT22;60696;51.426;6.934;2023-09-19T20:02:31;17.70;98.00
35027;DHT22;60696;51.426;6.934;2023-09-19T20:04:59;17.70;97.80
35027;DHT22;60696;51.426;6.934;2023-09-19T20:07:26;17.70;98.00
35027;DHT22;60696;51.426;6.934;2023-09-19T20:09:53;17.70;98.20
35027;DHT22;60696;51.426;6.934;2023-09-19T20:12:20;17.70;98.50